createdAt,value
2023-05-12T00:01:07.697Z,98966.41
2023-05-12T00:04:24.274Z,98973.84
2023-05-12T00:07:40.613Z,98970.71
2023-05-12T00:10:56.989Z,98969.23
2023-05-12T00:14:14.082Z,98962.30
2023-05-12T00:17:30.651Z,98965.31
2023-05-12T00:20:47.551Z,98965.34
2023-05-12T00:24:03.706Z,98969.66
2023-05-12T00:27:20.080Z,98969.05
2023-05-12T00:30:36.409Z,98967.41
2023-05-12T00:33:52.685Z,98972.52
2023-05-12T00:37:09.268Z,98970.34
2023-05-12T00:40:25.808Z,98969.20
2023-05-12T00:43:42.464Z,98970.86
2023-05-12T00:46:59.598Z,98978.21
2023-05-12T00:50:17.850Z,98975.56
2023-05-12T00:53:47.830Z,98972.25
2023-05-12T00:56:53.025Z,98981.88
2023-05-12T01:00:11.773Z,98977.61
2023-05-12T01:03:27.578Z,98979.28
2023-05-12T01:06:49.724Z,98979.97
2023-05-12T01:10:06.799Z,98986.13
2023-05-12T01:13:24.562Z,98981.16
2023-05-12T01:16:45.430Z,98986.13
2023-05-12T01:20:05.527Z,98992.43
2023-05-12T01:23:25.688Z,98988.53
2023-05-12T01:26:42.467Z,98989.06
2023-05-12T01:30:00.836Z,98994.54
2023-05-12T01:33:19.207Z,98995.18
2023-05-12T01:36:35.563Z,98999.32
2023-05-12T01:39:52.189Z,98992.38
2023-05-12T01:43:09.172Z,98999.79
2023-05-12T01:46:25.513Z,99007.41
2023-05-12T01:49:43.583Z,98995.17
2023-05-12T01:53:01.506Z,99007.06
2023-05-12T01:56:19.460Z,98998.80
2023-05-12T01:59:36.993Z,99000.28
2023-05-12T02:02:54.577Z,99002.12
2023-05-12T02:06:11.610Z,99001.80
2023-05-12T02:09:27.978Z,98997.31
2023-05-12T02:12:46.360Z,98999.64
2023-05-12T02:16:02.992Z,99000.45
2023-05-12T02:19:20.027Z,98998.15
2023-05-12T02:22:37.654Z,99001.95
2023-05-12T02:25:53.898Z,99006.27
2023-05-12T02:29:12.760Z,99001.80
2023-05-12T02:32:29.730Z,99000.32
2023-05-12T02:35:46.070Z,98998.31
2023-05-12T02:39:02.413Z,98997.33
2023-05-12T02:42:19.010Z,98997.81
2023-05-12T02:45:38.543Z,99003.61
2023-05-12T02:48:55.081Z,99014.50
2023-05-12T02:52:12.195Z,99002.60
2023-05-12T02:55:30.901Z,99009.72
2023-05-12T02:58:47.491Z,98999.63
2023-05-12T03:02:03.969Z,99002.61
2023-05-12T03:05:20.668Z,98997.83
2023-05-12T03:08:38.399Z,98998.31
2023-05-12T03:11:54.841Z,98992.03
2023-05-12T03:15:12.279Z,98996.98
2023-05-12T03:18:28.806Z,98996.12
2023-05-12T03:21:47.038Z,98996.12
2023-05-12T03:25:04.946Z,98998.77
2023-05-12T03:28:21.245Z,98999.58
2023-05-12T03:31:37.572Z,99001.20
2023-05-12T03:34:54.200Z,98997.92
2023-05-12T03:38:10.579Z,98999.72
2023-05-12T03:41:27.673Z,99005.48
2023-05-12T03:44:47.062Z,99002.66
2023-05-12T03:48:03.053Z,99005.78
2023-05-12T03:51:19.232Z,99010.08
2023-05-12T03:54:37.981Z,99015.57
2023-05-12T03:57:55.955Z,99016.85
2023-05-12T04:01:13.251Z,99014.05
2023-05-12T04:04:29.404Z,99016.00
2023-05-12T04:07:46.802Z,99018.81
2023-05-12T04:11:05.796Z,99011.19
2023-05-12T04:14:31.807Z,99021.45
2023-05-12T04:17:40.190Z,99021.13
2023-05-12T04:20:56.725Z,99028.75
2023-05-12T04:24:13.746Z,99023.46
2023-05-12T04:27:30.066Z,99024.62
2023-05-12T04:30:49.034Z,99028.78
2023-05-12T04:34:05.664Z,99032.75
2023-05-12T04:37:23.250Z,99033.39
2023-05-12T04:40:39.637Z,99033.09
2023-05-12T04:47:15.461Z,99035.05
2023-05-12T04:50:31.782Z,99038.72
2023-05-12T04:53:48.177Z,99040.84
2023-05-12T04:57:04.669Z,99044.98
2023-05-12T05:00:23.032Z,99038.03
2023-05-12T05:03:40.160Z,99047.12
2023-05-12T05:06:56.786Z,99049.96
2023-05-12T05:10:16.196Z,99053.31
2023-05-12T05:13:33.542Z,99042.91
2023-05-12T05:16:50.006Z,99052.36
2023-05-12T05:20:11.750Z,99057.14
2023-05-12T05:23:24.100Z,99052.84
2023-05-12T05:26:41.524Z,99052.88
2023-05-12T05:29:58.644Z,99052.41
2023-05-12T05:33:15.127Z,99056.52
2023-05-12T05:36:32.488Z,99067.61
2023-05-12T05:39:48.936Z,99075.22
2023-05-12T05:43:07.535Z,99062.30
2023-05-12T05:46:23.857Z,99073.53
2023-05-12T05:49:40.324Z,99068.23
2023-05-12T05:52:57.109Z,99070.39
2023-05-12T05:56:14.575Z,99078.47
2023-05-12T05:59:35.950Z,99086.54
2023-05-12T06:02:53.111Z,99088.64
2023-05-12T06:06:31.002Z,99081.00
2023-05-12T06:09:48.695Z,99078.45
2023-05-12T06:13:05.184Z,99083.38
2023-05-12T06:16:21.682Z,99083.98
2023-05-12T06:19:38.352Z,99087.14
2023-05-12T06:22:54.881Z,99087.21
2023-05-12T06:26:14.459Z,99088.79
2023-05-12T06:29:30.584Z,99086.69
2023-05-12T06:32:47.237Z,99096.16
2023-05-12T06:36:03.666Z,99090.52
2023-05-12T06:39:21.910Z,99087.06
2023-05-12T06:42:39.456Z,99082.19
2023-05-12T06:46:04.111Z,99083.47
2023-05-12T06:49:22.701Z,99087.10
2023-05-12T06:52:39.086Z,99088.06
2023-05-12T06:55:56.140Z,99092.28
2023-05-12T06:59:14.280Z,99097.91
2023-05-12T07:02:31.238Z,99102.41
2023-05-12T07:05:49.239Z,99093.48
2023-05-12T07:09:05.864Z,99095.45
2023-05-12T07:12:22.418Z,99083.25
2023-05-12T07:15:39.005Z,99098.29
2023-05-12T07:18:56.724Z,99090.55
2023-05-12T07:22:15.693Z,99092.48
2023-05-12T07:25:32.333Z,99104.30
2023-05-12T07:28:49.353Z,99094.46
2023-05-12T07:32:09.483Z,99102.30
2023-05-12T07:35:23.912Z,99099.02
2023-05-12T07:38:41.057Z,99102.31
2023-05-12T07:41:57.538Z,99103.41
2023-05-12T07:45:19.108Z,99124.01
2023-05-12T07:48:37.533Z,99112.78
2023-05-12T07:51:54.869Z,99109.30
2023-05-12T07:55:12.547Z,99117.13
2023-05-12T07:58:29.179Z,99114.44
2023-05-12T08:01:45.634Z,99112.14
2023-05-12T08:05:02.089Z,99121.41
2023-05-12T08:08:18.913Z,99120.38
2023-05-12T08:11:35.464Z,99123.39
2023-05-12T08:14:51.735Z,99121.03
2023-05-12T08:18:08.928Z,99122.56
2023-05-12T08:21:25.672Z,99128.41
2023-05-12T08:24:41.952Z,99117.24
2023-05-12T08:27:58.508Z,99119.84
2023-05-12T08:31:15.314Z,99122.09
2023-05-12T08:34:31.948Z,99120.23
2023-05-12T08:37:48.521Z,99132.27
2023-05-12T08:41:12.606Z,99135.05
2023-05-12T08:44:29.376Z,99137.47
2023-05-12T08:47:47.732Z,99133.91
2023-05-12T08:51:04.657Z,99153.76
2023-05-12T08:54:23.350Z,99159.05
2023-05-12T08:57:39.525Z,99132.39
2023-05-12T09:00:57.642Z,99143.33
2023-05-12T09:04:16.284Z,99146.56
2023-05-12T09:07:34.762Z,99146.77
2023-05-12T09:10:51.325Z,99154.36
2023-05-12T09:14:13.249Z,99165.69
2023-05-12T09:17:29.629Z,99150.01
2023-05-12T09:20:48.561Z,99151.20
2023-05-12T09:24:08.296Z,99147.73
2023-05-12T09:27:34.118Z,99134.73
2023-05-12T09:30:50.568Z,99139.81
2023-05-12T09:34:12.498Z,99130.11
2023-05-12T09:37:37.781Z,99137.14
2023-05-12T09:40:57.081Z,99126.31
2023-05-12T09:44:14.846Z,99145.66
2023-05-12T09:47:41.715Z,99127.31
2023-05-12T09:51:00.519Z,99120.14
2023-05-12T09:54:14.763Z,99118.50
2023-05-12T09:57:33.000Z,99136.27
2023-05-12T10:01:12.878Z,99122.06
2023-05-12T10:04:09.848Z,99134.14
2023-05-12T10:07:29.146Z,99128.46
2023-05-12T10:10:49.491Z,99120.53
2023-05-12T10:14:09.531Z,99123.82
2023-05-12T10:17:27.410Z,99128.39
2023-05-12T10:20:45.366Z,99123.97
2023-05-12T10:24:02.461Z,99108.70
2023-05-12T10:27:19.962Z,99130.59
2023-05-12T10:30:36.539Z,99106.03
2023-05-12T10:34:03.248Z,99108.72
2023-05-12T10:37:20.854Z,99101.41
2023-05-12T10:40:37.394Z,99120.67
2023-05-12T10:43:56.138Z,99112.16
2023-05-12T10:47:20.548Z,99117.86
2023-05-12T10:50:40.291Z,99094.13
2023-05-12T10:53:59.229Z,99101.78
2023-05-12T10:57:24.193Z,99114.34
2023-05-12T11:00:50.534Z,99106.97
2023-05-12T11:04:22.079Z,99103.61
2023-05-12T11:07:40.680Z,99090.82
2023-05-12T11:10:59.074Z,99102.05
2023-05-12T11:14:16.742Z,99098.91
2023-05-12T11:17:33.091Z,99101.88
2023-05-12T11:20:49.616Z,99103.68
2023-05-12T11:24:13.556Z,99091.66
2023-05-12T11:27:29.145Z,99107.25
2023-05-12T11:30:47.253Z,99102.91
2023-05-12T11:34:14.483Z,99117.55
2023-05-12T11:37:31.034Z,99092.95
2023-05-12T11:40:49.342Z,99100.89
2023-05-12T11:44:05.608Z,99094.69
2023-05-12T11:47:25.101Z,99101.95
2023-05-12T11:50:43.799Z,99108.05
2023-05-12T11:54:02.691Z,99108.05
2023-05-12T11:57:21.377Z,99107.69
2023-05-12T12:00:43.301Z,99093.00
2023-05-12T12:04:01.998Z,99089.39
2023-05-12T12:07:19.071Z,99089.28
2023-05-12T12:10:39.084Z,99090.95
2023-05-12T12:14:02.468Z,99094.22
2023-05-12T12:17:19.178Z,99109.63
2023-05-12T12:20:35.830Z,99087.70
2023-05-12T12:23:52.454Z,99090.11
2023-05-12T12:27:09.005Z,99083.77
2023-05-12T12:30:27.438Z,99086.94
2023-05-12T12:33:43.918Z,99094.83
2023-05-12T12:37:01.197Z,99091.91
2023-05-12T12:40:19.223Z,99081.76
2023-05-12T12:43:35.649Z,99099.88
2023-05-12T12:46:51.959Z,99082.90
2023-05-12T12:50:08.380Z,99091.69
2023-05-12T12:53:25.790Z,99090.41
2023-05-12T12:56:42.641Z,99078.23
2023-05-12T12:59:59.252Z,99084.83
2023-05-12T13:03:17.100Z,99079.81
2023-05-12T13:06:34.699Z,99081.76
2023-05-12T13:10:18.756Z,99075.55
2023-05-12T13:13:35.665Z,99071.90
2023-05-12T13:16:55.382Z,99085.25
2023-05-12T13:20:13.345Z,99095.24
2023-05-12T13:23:29.992Z,99079.23
2023-05-12T13:26:46.439Z,99083.97
2023-05-12T13:30:04.729Z,99075.78
2023-05-12T13:33:21.338Z,99066.89
2023-05-12T13:36:41.068Z,99067.33
2023-05-12T13:39:57.363Z,99070.33
2023-05-12T13:43:30.874Z,99063.66
2023-05-12T13:46:49.590Z,99067.38
2023-05-12T13:50:06.273Z,99058.28
2023-05-12T13:53:23.003Z,99081.36
2023-05-12T13:56:40.775Z,99070.75
2023-05-12T14:00:00.948Z,99058.52
2023-05-12T14:03:17.546Z,99075.75
2023-05-12T14:06:35.488Z,99066.62
2023-05-12T14:09:51.910Z,99061.02
2023-05-12T14:13:08.727Z,99053.42
2023-05-12T14:16:32.318Z,99069.17
2023-05-12T14:19:49.260Z,99068.15
2023-05-12T14:23:05.537Z,99066.41
2023-05-12T14:26:22.375Z,99064.77
2023-05-12T14:29:39.685Z,99062.92
2023-05-12T14:32:56.144Z,99058.73
2023-05-12T14:36:14.606Z,99065.51
2023-05-12T14:39:30.860Z,99087.08
2023-05-12T14:42:51.517Z,99061.84
2023-05-12T14:46:09.645Z,99064.39
2023-05-12T14:49:28.430Z,99059.63
2023-05-12T14:52:44.997Z,99059.48
2023-05-12T14:56:04.265Z,99071.27
2023-05-12T14:59:21.641Z,99061.20
2023-05-12T15:02:47.472Z,99065.09
2023-05-12T15:06:08.284Z,99076.87
2023-05-12T15:09:24.982Z,99073.72
2023-05-12T15:12:41.299Z,99055.91
2023-05-12T15:15:57.539Z,99057.31
2023-05-12T15:19:14.970Z,99069.56
2023-05-12T15:22:32.423Z,99087.23
2023-05-12T15:25:50.009Z,99071.56
2023-05-12T15:29:06.574Z,99085.30
2023-05-12T15:32:22.921Z,99070.32
2023-05-12T15:35:39.600Z,99067.46
2023-05-12T15:38:55.864Z,99085.48
2023-05-12T15:42:14.697Z,99064.68
2023-05-12T15:45:32.407Z,99077.48
2023-05-12T15:48:49.838Z,99070.70
2023-05-12T15:52:06.251Z,99073.62
2023-05-12T15:55:23.322Z,99072.81
2023-05-12T15:58:40.185Z,99067.80
2023-05-12T16:01:57.255Z,99072.34
2023-05-12T16:05:14.940Z,99066.98
2023-05-12T16:08:31.272Z,99088.02
2023-05-12T16:11:47.808Z,99069.95
2023-05-12T16:15:05.810Z,99074.66
2023-05-12T16:18:22.191Z,99090.52
2023-05-12T16:21:38.750Z,99078.38
2023-05-12T16:24:57.365Z,99077.34
2023-05-12T16:28:13.891Z,99067.27
2023-05-12T16:31:31.760Z,99085.23
2023-05-12T16:34:48.342Z,99075.31
2023-05-12T16:38:04.998Z,99083.44
2023-05-12T16:41:23.189Z,99080.52
2023-05-12T16:44:40.631Z,99089.45
2023-05-12T16:47:58.583Z,99083.55
2023-05-12T16:51:17.885Z,99078.25
2023-05-12T16:54:34.336Z,99093.95
2023-05-12T16:57:50.789Z,99090.66
2023-05-12T17:01:08.214Z,99085.98
2023-05-12T17:04:24.550Z,99086.23
2023-05-12T17:07:41.128Z,99094.92
2023-05-12T17:10:57.833Z,99101.38
2023-05-12T17:14:14.404Z,99094.59
2023-05-12T17:17:30.774Z,99089.45
2023-05-12T17:20:47.332Z,99094.20
2023-05-12T17:24:03.860Z,99087.03
2023-05-12T17:27:20.474Z,99087.89
2023-05-12T17:30:37.211Z,99098.22
2023-05-12T17:33:53.559Z,99098.25
2023-05-12T17:37:10.416Z,99104.06
2023-05-12T17:40:30.278Z,99108.40
2023-05-12T17:43:46.868Z,99107.19
2023-05-12T17:47:05.625Z,99103.31
2023-05-12T17:50:22.792Z,99106.62
2023-05-12T17:53:40.005Z,99107.05
2023-05-12T17:56:57.197Z,99107.69
2023-05-12T18:00:16.639Z,99117.81
2023-05-12T18:03:33.542Z,99114.33
2023-05-12T18:06:51.406Z,99112.91
2023-05-12T18:10:17.444Z,99114.37
2023-05-12T18:13:34.261Z,99120.56
2023-05-12T18:17:01.118Z,99118.13
2023-05-12T18:20:19.966Z,99125.34
2023-05-12T18:23:36.662Z,99128.84
2023-05-12T18:26:53.626Z,99124.33
2023-05-12T18:30:13.989Z,99139.11
2023-05-12T18:33:30.736Z,99137.27
2023-05-12T18:36:47.792Z,99135.02
2023-05-12T18:40:05.787Z,99141.99
2023-05-12T18:43:22.304Z,99145.48
2023-05-12T18:46:41.249Z,99143.23
2023-05-12T18:49:57.712Z,99144.27
2023-05-12T18:53:15.578Z,99144.25
2023-05-12T18:56:35.626Z,99147.13
2023-05-12T18:59:52.006Z,99150.20
2023-05-12T19:03:09.570Z,99156.95
2023-05-12T19:06:29.347Z,99150.55
2023-05-12T19:09:45.558Z,99149.11
2023-05-12T19:13:02.470Z,99147.83
2023-05-12T19:16:19.046Z,99154.61
2023-05-12T19:19:35.801Z,99156.03
2023-05-12T19:22:52.713Z,99150.19
2023-05-12T19:26:10.898Z,99154.92
2023-05-12T19:29:27.513Z,99166.60
2023-05-12T19:32:45.964Z,99171.09
2023-05-12T19:36:03.727Z,99173.08
2023-05-12T19:39:20.410Z,99170.36
2023-05-12T19:42:39.012Z,99171.78
2023-05-12T19:45:55.405Z,99181.58
2023-05-12T19:49:12.222Z,99179.70
2023-05-12T19:52:31.576Z,99181.11
2023-05-12T19:55:45.711Z,99173.89
2023-05-12T19:59:02.182Z,99177.57
2023-05-12T20:02:22.226Z,99178.55
2023-05-12T20:05:39.227Z,99179.77
2023-05-12T20:08:55.787Z,99184.45
2023-05-12T20:12:13.165Z,99187.70
2023-05-12T20:15:29.525Z,99184.62
2023-05-12T20:18:46.140Z,99186.84
2023-05-12T20:22:04.049Z,99184.34
2023-05-12T20:25:29.416Z,99180.05
2023-05-12T20:28:47.182Z,99182.08
2023-05-12T20:32:03.825Z,99182.45
2023-05-12T20:35:33.918Z,99180.55
2023-05-12T20:38:53.132Z,99175.42
2023-05-12T20:42:11.061Z,99174.61
2023-05-12T20:45:32.204Z,99180.75
2023-05-12T20:48:50.107Z,99179.49
2023-05-12T20:52:06.467Z,99178.04
2023-05-12T20:55:23.543Z,99175.57
2023-05-12T20:58:40.585Z,99172.70
2023-05-12T21:01:58.681Z,99180.26
2023-05-12T21:05:16.179Z,99181.06
2023-05-12T21:08:32.845Z,99177.59
2023-05-12T21:11:49.189Z,99177.59
2023-05-12T21:15:05.641Z,99181.83
2023-05-12T21:18:22.102Z,99181.58
2023-05-12T21:21:38.617Z,99181.58
2023-05-12T21:24:55.226Z,99177.38
2023-05-12T21:28:14.923Z,99181.86
2023-05-12T21:31:31.526Z,99191.06
2023-05-12T21:34:48.083Z,99185.88
2023-05-12T21:38:04.942Z,99186.33
2023-05-12T21:41:23.450Z,99180.55
2023-05-12T21:44:39.813Z,99188.64
2023-05-12T21:47:56.593Z,99192.25
2023-05-12T21:51:13.722Z,99193.65
2023-05-12T21:54:31.836Z,99194.56
2023-05-12T21:57:50.965Z,99196.96
2023-05-12T22:01:08.050Z,99190.83
2023-05-12T22:04:24.349Z,99192.03
2023-05-12T22:07:40.740Z,99192.58
2023-05-12T22:10:57.195Z,99185.34
2023-05-12T22:14:13.552Z,99188.19
2023-05-12T22:17:29.874Z,99193.25
2023-05-12T22:20:47.445Z,99189.41
2023-05-12T22:24:03.597Z,99193.14
2023-05-12T22:27:21.712Z,99191.48
2023-05-12T22:30:38.210Z,99190.60
2023-05-12T22:33:54.744Z,99190.14
2023-05-12T22:37:11.250Z,99199.47
2023-05-12T22:40:28.749Z,99193.42
2023-05-12T22:43:45.160Z,99192.69
2023-05-12T22:47:02.129Z,99194.27
2023-05-12T22:50:20.233Z,99204.78
2023-05-12T22:53:36.839Z,99197.72
2023-05-12T22:56:53.243Z,99202.41
2023-05-12T23:00:10.679Z,99196.78
2023-05-12T23:03:27.094Z,99189.34
2023-05-12T23:06:43.499Z,99196.28
2023-05-12T23:10:00.888Z,99192.72
2023-05-12T23:13:16.970Z,99194.44
2023-05-12T23:16:33.259Z,99192.97
2023-05-12T23:19:49.582Z,99186.67
2023-05-12T23:23:06.018Z,99185.67
2023-05-12T23:26:24.736Z,99187.66
2023-05-12T23:29:41.225Z,99183.72
2023-05-12T23:32:57.542Z,99188.75
2023-05-12T23:36:15.418Z,99183.38
2023-05-12T23:39:31.823Z,99184.71
2023-05-12T23:42:48.053Z,99177.30
2023-05-12T23:46:04.417Z,99183.87
2023-05-12T23:49:20.932Z,99178.44
2023-05-12T23:52:37.188Z,99184.08
2023-05-12T23:55:53.590Z,99183.48
2023-05-12T23:59:10.066Z,99182.35
